sensor_id;sensor_type;location;lat;lon;timestamp;temperature;humidity
26081;DHT22;13991;51.174;4.438;2023-04-25T17:36:25;13.50;94.60
26081;DHT22;13991;51.174;4.438;2023-04-25T17:38:50;13.50;94.70
26081;DHT22;13991;51.174;4.438;2023-04-25T17:41:16;13.70;94.30
26081;DHT22;13991;51.174;4.438;2023-04-25T17:43:43;14.00;93.80
26081;DHT22;13991;51.174;4.438;2023-04-25T17:46:08;14.30;93.70
26081;DHT22;13991;51.174;4.438;2023-04-25T17:48:34;14.90;92.50
26081;DHT22;13991;51.174;4.438;2023-04-25T17:51:00;15.00;91.80
26081;DHT22;13991;51.174;4.438;2023-04-25T17:53:27;14.80;91.50
26081;DHT22;13991;51.174;4.438;2023-04-25T17:55:52;14.30;91.40
26081;DHT22;13991;51.174;4.438;2023-04-25T17:58:18;13.60;92.60
26081;DHT22;13991;51.174;4.438;2023-04-25T18:00:44;13.10;93.50
26081;DHT22;13991;51.174;4.438;2023-04-25T18:03:09;12.80;93.00
26081;DHT22;13991;51.174;4.438;2023-04-25T18:05:35;12.40;92.60
26081;DHT22;13991;51.174;4.438;2023-04-25T18:08:01;12.10;93.00
26081;DHT22;13991;51.174;4.438;2023-04-25T18:10:27;12.10;93.50
26081;DHT22;13991;51.174;4.438;2023-04-25T18:12:52;12.00;93.50
26081;DHT22;13991;51.174;4.438;2023-04-25T18:15:18;11.70;94.60
26081;DHT22;13991;51.174;4.438;2023-04-25T18:17:46;11.50;95.30
26081;DHT22;13991;51.174;4.438;2023-04-25T18:20:13;11.20;96.30
26081;DHT22;13991;51.174;4.438;2023-04-25T18:22:43;11.20;97.00
26081;DHT22;13991;51.174;4.438;2023-04-25T18:25:09;11.20;97.50
26081;DHT22;13991;51.174;4.438;2023-04-25T18:27:39;11.00;97.20
26081;DHT22;13991;51.174;4.438;2023-04-25T18:30:06;10.90;98.20
26081;DHT22;13991;51.174;4.438;2023-04-25T18:32:33;10.80;99.40
26081;DHT22;13991;51.174;4.438;2023-04-25T18:34:59;10.70;99.90
26081;DHT22;13991;51.174;4.438;2023-04-25T18:37:24;10.60;99.90
26081;DHT22;13991;51.174;4.438;2023-04-25T18:39:50;10.70;99.90
26081;DHT22;13991;51.174;4.438;2023-04-25T18:42:18;10.60;99.90
26081;DHT22;13991;51.174;4.438;2023-04-25T18:44:43;10.50;99.90
26081;DHT22;13991;51.174;4.438;2023-04-25T18:47:10;10.50;99.90
26081;DHT22;13991;51.174;4.438;2023-04-25T18:49:38;10.60;99.90
26081;DHT22;13991;51.174;4.438;2023-04-25T18:52:04;10.60;99.90
26081;DHT22;13991;51.174;4.438;2023-04-25T18:54:32;10.60;99.90
26081;DHT22;13991;51.174;4.438;2023-04-25T18:56:58;10.50;99.90
26081;DHT22;13991;51.174;4.438;2023-04-25T18:59:25;10.40;99.90
26081;DHT22;13991;51.174;4.438;2023-04-25T19:01:51;10.20;99.90
26081;DHT22;13991;51.174;4.438;2023-04-25T19:04:18;10.20;99.90
26081;DHT22;13991;51.174;4.438;2023-04-25T19:06:43;10.40;99.90
26081;DHT22;13991;51.174;4.438;2023-04-25T19:09:11;10.30;99.90
26081;DHT22;13991;51.174;4.438;2023-04-25T19:11:37;10.30;99.90
26081;DHT22;13991;51.174;4.438;2023-04-25T19:14:03;10.30;99.90
26081;DHT22;13991;51.174;4.438;2023-04-25T19:16:29;10.20;99.90
26081;DHT22;13991;51.174;4.438;2023-04-25T19:19:01;10.10;99.90
26081;DHT22;13991;51.174;4.438;2023-04-25T19:21:27;10.00;99.90
26081;DHT22;13991;51.174;4.438;2023-04-25T19:23:53;10.00;99.90
26081;DHT22;13991;51.174;4.438;2023-04-25T19:26:18;9.90;99.90
26081;DHT22;13991;51.174;4.438;2023-04-25T19:28:45;10.00;99.90
26081;DHT22;13991;51.174;4.438;2023-04-25T19:31:11;9.90;99.90
26081;DHT22;13991;51.174;4.438;2023-04-25T19:33:37;10.00;99.90
26081;DHT22;13991;51.174;4.438;2023-04-25T19:36:03;9.90;99.90
26081;DHT22;13991;51.174;4.438;2023-04-25T19:38:28;9.90;99.90
26081;DHT22;13991;51.174;4.438;2023-04-25T19:40:54;10.00;99.90
26081;DHT22;13991;51.174;4.438;2023-04-25T19:43:20;9.90;99.90
26081;DHT22;13991;51.174;4.438;2023-04-25T19:45:46;9.90;99.90
26081;DHT22;13991;51.174;4.438;2023-04-25T19:48:12;9.90;99.90
26081;DHT22;13991;51.174;4.438;2023-04-25T19:50:39;9.80;99.90
26081;DHT22;13991;51.174;4.438;2023-04-25T19:53:04;9.70;99.90
26081;DHT22;13991;51.174;4.438;2023-04-25T19:55:30;9.80;99.90
26081;DHT22;13991;51.174;4.438;2023-04-25T19:57:56;9.80;99.90
26081;DHT22;13991;51.174;4.438;2023-04-25T20:00:22;9.70;99.90
26081;DHT22;13991;51.174;4.438;2023-04-25T20:02:48;9.70;99.90
26081;DHT22;13991;51.174;4.438;2023-04-25T20:05:15;9.60;99.90
26081;DHT22;13991;51.174;4.438;2023-04-25T20:07:41;9.50;99.90
26081;DHT22;13991;51.174;4.438;2023-04-25T20:10:08;9.50;99.90
26081;DHT22;13991;51.174;4.438;2023-04-25T20:12:36;9.40;99.90
26081;DHT22;13991;51.174;4.438;2023-04-25T20:15:05;9.50;99.90
26081;DHT22;13991;51.174;4.438;2023-04-25T20:17:32;9.60;99.90
26081;DHT22;13991;51.174;4.438;2023-04-25T20:19:58;9.50;99.90
26081;DHT22;13991;51.174;4.438;2023-04-25T20:22:24;9.50;99.90
26081;DHT22;13991;51.174;4.438;2023-04-25T20:24:50;9.40;99.90
26081;DHT22;13991;51.174;4.438;2023-04-25T20:27:17;9.40;99.90
26081;DHT22;13991;51.174;4.438;2023-04-25T20:29:42;9.50;99.90
26081;DHT22;13991;51.174;4.438;2023-04-25T20:32:08;9.30;99.90
26081;DHT22;13991;51.174;4.438;2023-04-25T20:34:34;9.30;99.90
26081;DHT22;13991;51.174;4.438;2023-04-25T20:37:00;9.30;99.90
26081;DHT22;13991;51.174;4.438;2023-04-25T20:39:27;9.30;99.90
26081;DHT22;13991;51.174;4.438;2023-04-25T20:41:54;9.30;99.90
26081;DHT22;13991;51.174;4.438;2023-04-25T20:44:19;9.40;99.90
26081;DHT22;13991;51.174;4.438;2023-04-25T20:46:47;9.40;99.90
26081;DHT22;13991;51.174;4.438;2023-04-25T20:49:13;9.40;99.90
26081;DHT22;13991;51.174;4.438;2023-04-25T20:51:39;9.40;99.90
26081;DHT22;13991;51.174;4.438;2023-04-25T20:54:05;9.30;99.90
26081;DHT22;13991;51.174;4.438;2023-04-25T20:56:31;9.40;99.90
26081;DHT22;13991;51.174;4.438;2023-04-25T20:58:57;9.40;99.90
26081;DHT22;13991;51.174;4.438;2023-04-25T21:01:23;9.30;99.90
26081;DHT22;13991;51.174;4.438;2023-04-25T21:03:50;9.30;99.90
26081;DHT22;13991;51.174;4.438;2023-04-25T21:06:16;9.30;99.90
26081;DHT22;13991;51.174;4.438;2023-04-25T21:08:42;9.30;99.90
26081;DHT22;13991;51.174;4.438;2023-04-25T21:11:08;9.20;99.90
26081;DHT22;13991;51.174;4.438;2023-04-25T21:13:34;9.10;99.90
26081;DHT22;13991;51.174;4.438;2023-04-25T21:16:00;9.30;99.90
26081;DHT22;13991;51.174;4.438;2023-04-25T21:18:26;9.30;99.90
26081;DHT22;13991;51.174;4.438;2023-04-25T21:20:52;9.30;99.90
26081;DHT22;13991;51.174;4.438;2023-04-25T21:23:18;9.30;99.90
26081;DHT22;13991;51.174;4.438;2023-04-25T21:25:44;9.20;99.90
26081;DHT22;13991;51.174;4.438;2023-04-25T21:28:10;9.20;99.90
26081;DHT22;13991;51.174;4.438;2023-04-25T21:30:36;9.10;99.90
26081;DHT22;13991;51.174;4.438;2023-04-25T21:33:04;9.00;99.90
26081;DHT22;13991;51.174;4.438;2023-04-25T21:35:30;8.90;99.90
26081;DHT22;13991;51.174;4.438;2023-04-25T21:37:55;8.90;99.90
26081;DHT22;13991;51.174;4.438;2023-04-25T21:40:21;9.00;99.90
26081;DHT22;13991;51.174;4.438;2023-04-25T21:42:47;9.00;99.90
26081;DHT22;13991;51.174;4.438;2023-04-25T21:45:19;9.10;99.90
26081;DHT22;13991;51.174;4.438;2023-04-25T21:47:45;9.00;99.90
26081;DHT22;13991;51.174;4.438;2023-04-25T21:50:12;9.00;99.90
26081;DHT22;13991;51.174;4.438;2023-04-25T21:52:38;9.20;99.90
26081;DHT22;13991;51.174;4.438;2023-04-25T21:55:04;9.10;99.90
26081;DHT22;13991;51.174;4.438;2023-04-25T21:57:30;9.00;99.90
26081;DHT22;13991;51.174;4.438;2023-04-25T21:59:55;8.90;99.90
26081;DHT22;13991;51.174;4.438;2023-04-25T22:02:21;8.80;99.90
26081;DHT22;13991;51.174;4.438;2023-04-25T22:04:47;9.00;99.90
26081;DHT22;13991;51.174;4.438;2023-04-25T22:07:13;9.00;99.90
26081;DHT22;13991;51.174;4.438;2023-04-25T22:09:40;8.90;99.90
26081;DHT22;13991;51.174;4.438;2023-04-25T22:12:05;8.80;99.90
26081;DHT22;13991;51.174;4.438;2023-04-25T22:14:32;8.70;99.90
26081;DHT22;13991;51.174;4.438;2023-04-25T22:16:58;8.70;99.90
26081;DHT22;13991;51.174;4.438;2023-04-25T22:19:25;8.70;99.90
26081;DHT22;13991;51.174;4.438;2023-04-25T22:21:52;8.80;99.90
26081;DHT22;13991;51.174;4.438;2023-04-25T22:24:19;8.90;99.90
26081;DHT22;13991;51.174;4.438;2023-04-25T22:26:45;8.80;99.90
26081;DHT22;13991;51.174;4.438;2023-04-25T22:29:11;8.90;99.90
26081;DHT22;13991;51.174;4.438;2023-04-25T22:31:37;8.90;99.90
26081;DHT22;13991;51.174;4.438;2023-04-25T22:34:03;8.80;99.90
26081;DHT22;13991;51.174;4.438;2023-04-25T22:36:28;9.00;99.90
26081;DHT22;13991;51.174;4.438;2023-04-25T22:38:54;8.80;99.90
26081;DHT22;13991;51.174;4.438;2023-04-25T22:41:20;8.90;99.90
26081;DHT22;13991;51.174;4.438;2023-04-25T22:43:47;8.80;99.90
26081;DHT22;13991;51.174;4.438;2023-04-25T22:46:17;8.70;99.90
26081;DHT22;13991;51.174;4.438;2023-04-25T22:48:43;8.70;99.90
26081;DHT22;13991;51.174;4.438;2023-04-25T22:51:10;8.60;99.90
26081;DHT22;13991;51.174;4.438;2023-04-25T22:53:36;8.50;99.90
26081;DHT22;13991;51.174;4.438;2023-04-25T22:56:13;8.40;99.90
26081;DHT22;13991;51.174;4.438;2023-04-25T22:58:39;8.40;99.90
26081;DHT22;13991;51.174;4.438;2023-04-25T23:01:06;8.30;99.90
26081;DHT22;13991;51.174;4.438;2023-04-25T23:03:32;8.20;99.90
26081;DHT22;13991;51.174;4.438;2023-04-25T23:05:58;8.10;99.90
26081;DHT22;13991;51.174;4.438;2023-04-25T23:08:25;8.00;99.90
26081;DHT22;13991;51.174;4.438;2023-04-25T23:10:52;7.90;99.90
26081;DHT22;13991;51.174;4.438;2023-04-25T23:13:18;7.80;99.90
26081;DHT22;13991;51.174;4.438;2023-04-25T23:15:45;7.80;99.90
26081;DHT22;13991;51.174;4.438;2023-04-25T23:18:11;7.70;99.90
26081;DHT22;13991;51.174;4.438;2023-04-25T23:20:36;7.60;99.90
26081;DHT22;13991;51.174;4.438;2023-04-25T23:23:02;7.60;99.90
26081;DHT22;13991;51.174;4.438;2023-04-25T23:25:28;7.60;99.90
26081;DHT22;13991;51.174;4.438;2023-04-25T23:27:53;7.50;99.90
26081;DHT22;13991;51.174;4.438;2023-04-25T23:30:20;7.50;99.90
26081;DHT22;13991;51.174;4.438;2023-04-25T23:32:45;7.40;99.90
26081;DHT22;13991;51.174;4.438;2023-04-25T23:35:11;7.50;99.90
26081;DHT22;13991;51.174;4.438;2023-04-25T23:37:38;7.50;99.90
26081;DHT22;13991;51.174;4.438;2023-04-25T23:40:05;7.30;99.90
26081;DHT22;13991;51.174;4.438;2023-04-25T23:42:35;7.30;99.90
26081;DHT22;13991;51.174;4.438;2023-04-25T23:45:01;7.30;99.90
26081;DHT22;13991;51.174;4.438;2023-04-25T23:47:27;7.30;99.90
26081;DHT22;13991;51.174;4.438;2023-04-25T23:49:52;7.20;99.90
26081;DHT22;13991;51.174;4.438;2023-04-25T23:52:18;7.20;99.90
26081;DHT22;13991;51.174;4.438;2023-04-25T23:54:44;7.10;99.90
26081;DHT22;13991;51.174;4.438;2023-04-25T23:57:09;7.10;99.90
26081;DHT22;13991;51.174;4.438;2023-04-25T23:59:36;7.00;99.90
